createdAt,value
2019-04-10T00:04:41.757Z,1.63
2019-04-10T00:07:14.933Z,1.57
2019-04-10T00:09:41.284Z,1.54
2019-04-10T00:12:09.926Z,1.51
2019-04-10T00:14:38.742Z,1.53
2019-04-10T00:17:07.295Z,1.44
2019-04-10T00:19:35.945Z,1.53
2019-04-10T00:22:04.551Z,1.36
2019-04-10T00:24:33.107Z,1.29
2019-04-10T00:27:02.063Z,1.24
2019-04-10T00:29:32.042Z,1.23
2019-04-10T00:32:02.153Z,1.26
2019-04-10T00:34:31.854Z,1.29
2019-04-10T00:37:00.475Z,1.37
2019-04-10T00:39:29.024Z,1.35
2019-04-10T00:41:58.792Z,1.29
2019-04-10T00:44:27.903Z,1.20
2019-04-10T00:46:56.962Z,1.25
2019-04-10T00:49:26.048Z,1.13
2019-04-10T00:51:55.529Z,1.10
2019-04-10T00:54:24.271Z,1.11
2019-04-10T00:56:52.849Z,1.08
2019-04-10T00:59:21.391Z,1.06
2019-04-10T01:01:50.033Z,1.04
2019-04-10T01:04:18.607Z,0.88
2019-04-10T01:06:48.117Z,0.85
2019-04-10T01:09:17.380Z,0.90
2019-04-10T01:11:49.742Z,0.81
2019-04-10T01:14:18.332Z,0.87
2019-04-10T01:16:47.374Z,0.84
2019-04-10T01:19:19.623Z,0.75
2019-04-10T01:21:48.324Z,0.67
2019-04-10T01:24:17.504Z,0.69
2019-04-10T01:26:49.622Z,0.66
2019-04-10T01:29:19.587Z,0.60
2019-04-10T01:31:48.343Z,0.60
2019-04-10T01:34:17.081Z,0.55
2019-04-10T01:36:47.836Z,0.59
2019-04-10T01:39:22.422Z,0.57
2019-04-10T01:41:50.966Z,0.49
2019-04-10T01:44:20.495Z,0.44
2019-04-10T01:46:49.087Z,0.40
2019-04-10T01:49:17.763Z,0.25
2019-04-10T01:51:46.322Z,0.29
2019-04-10T01:54:17.277Z,0.28
2019-04-10T01:56:47.956Z,0.20
2019-04-10T01:59:19.725Z,0.28
2019-04-10T02:01:52.887Z,0.30
2019-04-10T02:04:21.538Z,0.25
2019-04-10T02:06:50.303Z,0.34
2019-04-10T02:09:19.228Z,0.35
2019-04-10T02:11:48.159Z,0.28
2019-04-10T02:14:20.440Z,0.22
2019-04-10T02:16:49.418Z,0.21
2019-04-10T02:19:18.407Z,0.23
2019-04-10T02:21:47.734Z,0.17
2019-04-10T02:24:16.696Z,0.08
2019-04-10T02:26:48.049Z,0.10
2019-04-10T02:29:18.190Z,0.07
2019-04-10T02:31:48.466Z,0.04
2019-04-10T02:34:19.168Z,0.03
2019-04-10T02:36:48.857Z,-0.06
2019-04-10T02:39:25.637Z,-0.04
2019-04-10T02:41:47.871Z,-0.10
2019-04-10T02:44:16.581Z,-0.09
2019-04-10T02:46:45.207Z,-0.09
2019-04-10T02:49:16.222Z,-0.11
2019-04-10T02:51:45.325Z,-0.15
2019-04-10T02:54:17.546Z,-0.24
2019-04-10T02:56:47.695Z,-0.19
2019-04-10T02:59:18.700Z,-0.26
2019-04-10T03:01:47.540Z,-0.27
2019-04-10T03:04:20.586Z,-0.35
2019-04-10T03:06:49.406Z,-0.37
2019-04-10T03:09:32.641Z,-0.47
2019-04-10T03:11:49.835Z,-0.47
2019-04-10T03:14:18.985Z,-0.57
2019-04-10T03:16:48.018Z,-0.53
2019-04-10T03:19:19.129Z,-0.43
2019-04-10T03:21:47.798Z,-0.35
2019-04-10T03:24:16.394Z,-0.21
2019-04-10T03:26:45.815Z,-0.19
2019-04-10T03:29:15.764Z,-0.16
2019-04-10T03:31:47.714Z,-0.08
2019-04-10T03:34:26.157Z,0.08
2019-04-10T03:36:56.052Z,0.07
2019-04-10T03:39:25.690Z,0.16
2019-04-10T03:41:54.724Z,0.20
2019-04-10T03:44:23.441Z,0.27
2019-04-10T03:46:52.748Z,0.28
2019-04-10T03:49:22.377Z,0.31
2019-04-10T03:51:50.934Z,0.39
2019-04-10T03:54:20.716Z,0.48
2019-04-10T03:56:50.025Z,0.48
2019-04-10T03:59:18.744Z,0.44
2019-04-10T04:01:47.331Z,0.50
2019-04-10T04:04:17.524Z,0.57
2019-04-10T04:06:50.192Z,0.74
2019-04-10T04:09:19.611Z,0.84
2019-04-10T04:11:48.246Z,0.86
2019-04-10T04:14:20.000Z,0.86
2019-04-10T04:16:49.125Z,0.94
2019-04-10T04:19:17.769Z,0.99
2019-04-10T04:21:46.721Z,0.99
2019-04-10T04:24:21.133Z,1.11
2019-04-10T04:26:48.798Z,1.10
2019-04-10T04:29:18.430Z,1.21
2019-04-10T04:31:47.119Z,1.22
2019-04-10T04:34:17.188Z,1.30
2019-04-10T04:36:48.847Z,1.29
2019-04-10T04:39:24.915Z,1.24
2019-04-10T04:41:47.938Z,1.20
2019-04-10T04:44:18.138Z,1.16
2019-04-10T04:46:50.510Z,1.08
2019-04-10T04:49:19.238Z,1.09
2019-04-10T04:51:48.091Z,1.03
2019-04-10T04:54:19.859Z,1.12
2019-04-10T04:56:48.448Z,1.12
2019-04-10T04:59:17.041Z,1.14
2019-04-10T05:01:45.631Z,1.16
2019-04-10T05:04:17.453Z,1.23
2019-04-10T05:06:46.413Z,1.33
2019-04-10T05:09:27.345Z,1.30
2019-04-10T05:11:48.958Z,1.33
2019-04-10T05:14:17.603Z,1.50
2019-04-10T05:16:49.951Z,1.46
2019-04-10T05:19:18.973Z,1.62
2019-04-10T05:21:47.752Z,1.68
2019-04-10T05:24:17.830Z,1.82
2019-04-10T05:26:49.023Z,1.80
2019-04-10T05:29:18.176Z,1.94
2019-04-10T05:31:50.943Z,2.01
2019-04-10T05:34:19.965Z,2.07
2019-04-10T05:36:49.165Z,2.14
2019-04-10T05:39:19.041Z,2.25
2019-04-10T05:41:48.461Z,2.19
2019-04-10T05:44:18.035Z,2.37
2019-04-10T05:46:49.129Z,2.48
2019-04-10T05:49:17.839Z,2.55
2019-04-10T05:51:46.460Z,2.52
2019-04-10T05:54:15.335Z,2.49
2019-04-10T05:56:46.981Z,2.49
2019-04-10T05:59:16.401Z,2.56
2019-04-10T06:01:45.685Z,2.52
2019-04-10T06:04:17.041Z,2.63
2019-04-10T06:06:46.511Z,2.78
2019-04-10T06:09:16.258Z,2.75
2019-04-10T06:11:47.363Z,2.71
2019-04-10T06:14:19.350Z,2.72
2019-04-10T06:16:48.960Z,2.92
2019-04-10T06:19:17.915Z,2.94
2019-04-10T06:21:46.509Z,2.88
2019-04-10T06:24:16.143Z,2.85
2019-04-10T06:26:47.821Z,2.93
2019-04-10T06:29:19.196Z,2.98
2019-04-10T06:31:47.882Z,3.12
2019-04-10T06:34:18.587Z,3.10
2019-04-10T06:36:49.893Z,3.17
2019-04-10T06:39:18.476Z,3.31
2019-04-10T06:41:47.025Z,3.49
2019-04-10T06:44:15.593Z,3.46
2019-04-10T06:46:46.546Z,3.54
2019-04-10T06:49:16.440Z,3.40
2019-04-10T06:51:45.211Z,3.46
2019-04-10T06:54:14.391Z,3.59
2019-04-10T06:56:43.129Z,3.61
2019-04-10T06:59:12.163Z,3.73
2019-04-10T07:01:48.727Z,3.93
2019-04-10T07:04:11.487Z,4.06
2019-04-10T07:06:52.848Z,4.26
2019-04-10T07:09:13.762Z,4.36
2019-04-10T07:12:01.740Z,4.54
2019-04-10T07:14:32.467Z,4.60
2019-04-10T07:17:19.951Z,4.49
2019-04-10T07:20:10.419Z,4.53
2019-04-10T07:22:43.298Z,4.72
2019-04-10T07:25:12.465Z,4.89
2019-04-10T07:30:33.876Z,5.27
2019-04-10T07:33:03.464Z,5.40
2019-04-10T07:35:33.939Z,5.49
2019-04-10T07:38:02.481Z,5.80
2019-04-10T07:40:34.950Z,5.94
2019-04-10T07:43:02.116Z,5.89
2019-04-10T07:45:30.755Z,5.91
2019-04-10T07:48:00.306Z,5.77
2019-04-10T07:50:30.172Z,5.85
2019-04-10T07:52:59.793Z,5.89
2019-04-10T07:55:28.846Z,6.05
2019-04-10T07:57:57.490Z,6.05
2019-04-10T08:00:26.972Z,6.75
2019-04-10T08:02:55.693Z,6.97
2019-04-10T08:05:25.053Z,6.97
2019-04-10T08:07:55.920Z,7.06
2019-04-10T08:10:24.288Z,7.35
2019-04-10T08:12:54.221Z,7.27
2019-04-10T08:15:23.390Z,7.25
2019-04-10T08:17:52.056Z,7.45
2019-04-10T08:20:21.870Z,7.24
2019-04-10T08:22:51.187Z,7.11
2019-04-10T08:25:19.945Z,7.11
2019-04-10T08:27:48.527Z,7.17
2019-04-10T08:30:17.546Z,7.38
2019-04-10T08:32:53.517Z,7.59
2019-04-10T08:35:18.172Z,7.75
2019-04-10T08:37:50.628Z,8.08
2019-04-10T08:40:19.502Z,8.25
2019-04-10T08:42:49.138Z,8.55
2019-04-10T08:45:18.914Z,8.91
2019-04-10T08:47:48.689Z,8.85
2019-04-10T08:50:17.792Z,9.15
2019-04-10T08:52:46.887Z,9.22
2019-04-10T08:55:28.144Z,9.26
2019-04-10T09:00:56.583Z,9.26
2019-04-10T09:03:26.698Z,9.49
2019-04-10T09:05:55.370Z,9.31
2019-04-10T09:08:24.591Z,9.08
2019-04-10T09:10:54.461Z,9.17
2019-04-10T09:13:24.225Z,9.18
2019-04-10T09:15:54.037Z,9.25
2019-04-10T09:18:23.157Z,9.33
2019-04-10T09:20:51.725Z,9.58
2019-04-10T09:23:33.090Z,9.46
2019-04-10T09:25:51.275Z,9.47
2019-04-10T09:28:20.176Z,9.57
2019-04-10T09:30:49.063Z,9.82
2019-04-10T09:33:24.303Z,10.05
2019-04-10T09:36:08.788Z,10.04
2019-04-10T09:38:38.957Z,10.22
2019-04-10T09:41:07.832Z,10.44
2019-04-10T09:43:36.386Z,10.66
2019-04-10T09:46:04.933Z,10.78
2019-04-10T09:48:33.790Z,10.32
2019-04-10T09:51:02.847Z,9.85
2019-04-10T09:53:31.428Z,9.87
2019-04-10T09:56:00.987Z,9.94
2019-04-10T09:58:29.639Z,9.85
2019-04-10T10:01:01.403Z,9.68
2019-04-10T10:03:30.327Z,9.58
2019-04-10T10:06:00.083Z,9.56
2019-04-10T10:08:28.959Z,9.34
2019-04-10T10:10:57.702Z,9.41
2019-04-10T10:13:27.651Z,9.75
2019-04-10T10:15:56.794Z,9.78
2019-04-10T10:18:25.634Z,10.24
2019-04-10T10:20:54.320Z,10.05
2019-04-10T10:23:22.884Z,10.09
2019-04-10T10:25:51.435Z,10.13
2019-04-10T10:28:20.781Z,10.06
2019-04-10T10:30:49.528Z,10.18
2019-04-10T10:33:18.105Z,10.06
2019-04-10T10:35:49.496Z,9.98
2019-04-10T10:38:19.033Z,10.06
2019-04-10T10:40:48.732Z,10.05
2019-04-10T10:43:22.577Z,10.34
2019-04-10T10:45:51.307Z,10.21
2019-04-10T10:48:19.930Z,10.47
2019-04-10T10:50:48.506Z,10.02
2019-04-10T10:53:18.154Z,10.27
2019-04-10T10:55:49.767Z,10.34
2019-04-10T10:58:19.596Z,10.65
2019-04-10T11:00:50.026Z,10.84
2019-04-10T11:03:18.766Z,10.93
2019-04-10T11:05:48.697Z,10.96
2019-04-10T11:08:17.719Z,11.25
2019-04-10T11:10:50.710Z,11.87
2019-04-10T11:13:18.907Z,11.80
2019-04-10T11:15:48.467Z,11.49
2019-04-10T11:18:18.143Z,10.88
2019-04-10T11:20:48.464Z,10.46
2019-04-10T11:23:18.158Z,10.67
2019-04-10T11:25:47.917Z,10.86
2019-04-10T11:28:18.739Z,10.56
2019-04-10T11:30:49.189Z,10.16
2019-04-10T11:33:18.815Z,9.86
2019-04-10T11:35:47.718Z,9.82
2019-04-10T11:38:17.569Z,10.18
2019-04-10T11:40:47.377Z,10.36
2019-04-10T11:43:19.112Z,10.75
2019-04-10T11:45:52.436Z,10.72
2019-04-10T11:48:19.713Z,11.07
2019-04-10T11:50:48.554Z,11.27
2019-04-10T11:53:18.739Z,11.14
2019-04-10T11:55:50.996Z,10.91
2019-04-10T11:58:18.249Z,11.23
2019-04-10T12:00:52.637Z,11.63
2019-04-10T12:03:26.989Z,12.12
2019-04-10T12:11:21.675Z,12.94
2019-04-10T12:13:50.540Z,12.92
2019-04-10T12:16:19.196Z,12.91
2019-04-10T12:18:48.793Z,13.15
2019-04-10T12:21:17.787Z,13.26
2019-04-10T12:23:47.672Z,13.15
2019-04-10T12:26:16.568Z,12.60
2019-04-10T12:28:46.436Z,12.25
2019-04-10T12:31:18.187Z,11.79
2019-04-10T12:33:50.725Z,11.24
2019-04-10T12:36:20.496Z,11.70
2019-04-10T12:38:49.837Z,12.26
2019-04-10T12:41:19.290Z,12.50
2019-04-10T12:43:47.920Z,11.99
2019-04-10T12:46:19.046Z,11.75
2019-04-10T12:48:47.840Z,12.04
2019-04-10T12:51:17.403Z,12.24
2019-04-10T12:53:49.317Z,12.31
2019-04-10T12:56:17.982Z,12.33
2019-04-10T12:58:48.085Z,12.89
2019-04-10T13:01:20.459Z,12.39
2019-04-10T13:03:49.444Z,11.97
2019-04-10T13:06:18.190Z,11.42
2019-04-10T13:08:57.811Z,11.29
2019-04-10T13:11:20.554Z,10.94
2019-04-10T13:13:51.148Z,11.01
2019-04-10T13:16:20.331Z,10.63
2019-04-10T13:18:49.027Z,10.44
2019-04-10T13:21:18.067Z,10.25
2019-04-10T13:23:48.947Z,9.99
2019-04-10T13:26:17.749Z,10.33
2019-04-10T13:31:37.313Z,11.46
2019-04-10T13:34:06.019Z,12.08
2019-04-10T13:36:35.610Z,12.44
2019-04-10T13:39:06.632Z,12.67
2019-04-10T13:41:38.768Z,12.82
2019-04-10T13:44:08.675Z,12.12
2019-04-10T13:46:37.441Z,11.72
2019-04-10T13:49:06.094Z,11.73
2019-04-10T13:51:43.550Z,11.46
2019-04-10T13:54:22.837Z,11.51
2019-04-10T13:56:51.473Z,11.15
2019-04-10T13:59:20.688Z,10.56
2019-04-10T14:01:50.215Z,10.32
2019-04-10T14:04:19.084Z,10.37
2019-04-10T14:06:49.317Z,10.81
2019-04-10T14:09:34.332Z,11.45
2019-04-10T14:11:51.073Z,12.07
2019-04-10T14:14:20.329Z,12.53
2019-04-10T14:16:49.041Z,12.93
2019-04-10T14:19:17.694Z,12.84
2019-04-10T14:21:46.318Z,12.27
2019-04-10T14:24:17.952Z,11.47
2019-04-10T14:26:56.683Z,11.07
2019-04-10T14:29:26.781Z,10.54
2019-04-10T14:32:03.059Z,10.42
2019-04-10T14:34:31.629Z,11.10
2019-04-10T14:37:01.120Z,11.97
2019-04-10T14:39:29.787Z,12.09
2019-04-10T14:41:58.340Z,11.66
2019-04-10T14:44:27.002Z,11.23
2019-04-10T14:46:55.556Z,11.06
2019-04-10T14:49:24.952Z,10.63
2019-04-10T14:51:54.719Z,10.19
2019-04-10T14:54:23.868Z,9.94
2019-04-10T14:56:52.887Z,9.56
2019-04-10T14:59:22.072Z,9.59
2019-04-10T15:01:51.253Z,10.02
2019-04-10T15:04:21.265Z,10.51
2019-04-10T15:06:50.093Z,11.09
2019-04-10T15:09:25.565Z,11.65
2019-04-10T15:11:51.803Z,12.16
2019-04-10T15:14:21.623Z,12.66
2019-04-10T15:16:55.479Z,13.36
2019-04-10T15:19:20.622Z,14.10
2019-04-10T15:21:49.247Z,13.29
2019-04-10T15:24:17.821Z,13.91
2019-04-10T15:26:48.833Z,14.33
2019-04-10T15:29:18.378Z,14.11
2019-04-10T15:31:48.093Z,14.45
2019-04-10T15:34:20.506Z,14.59
2019-04-10T15:36:49.459Z,14.27
2019-04-10T15:39:25.776Z,14.11
2019-04-10T15:41:49.724Z,13.63
2019-04-10T15:44:18.453Z,13.40
2019-04-10T15:46:47.013Z,13.08
2019-04-10T15:49:17.203Z,12.40
2019-04-10T15:51:49.754Z,12.43
2019-04-10T15:54:19.776Z,12.53
2019-04-10T15:56:48.385Z,12.52
2019-04-10T15:59:17.103Z,12.21
2019-04-10T16:01:47.263Z,11.78
2019-04-10T16:04:19.165Z,10.69
2019-04-10T16:06:49.168Z,10.20
2019-04-10T16:09:18.618Z,9.79
2019-04-10T16:11:54.882Z,9.33
2019-04-10T16:14:27.309Z,9.00
2019-04-10T16:17:10.311Z,8.79
2019-04-10T16:19:49.340Z,8.69
2019-04-10T16:22:19.585Z,8.75
2019-04-10T16:24:49.120Z,9.06
2019-04-10T16:27:18.067Z,9.26
2019-04-10T16:29:49.537Z,9.46
2019-04-10T16:32:18.877Z,9.63
2019-04-10T16:34:47.488Z,9.68
2019-04-10T16:37:19.488Z,9.92
2019-04-10T16:39:58.524Z,9.94
2019-04-10T16:42:19.014Z,10.02
2019-04-10T16:44:47.738Z,10.05
2019-04-10T16:47:17.484Z,10.10
2019-04-10T16:49:49.160Z,9.90
2019-04-10T16:52:17.804Z,9.94
2019-04-10T16:54:46.348Z,9.61
2019-04-10T16:57:14.999Z,9.46
2019-04-10T16:59:44.703Z,9.35
2019-04-10T17:02:13.273Z,9.27
2019-04-10T17:04:41.880Z,9.13
2019-04-10T17:07:10.628Z,8.93
2019-04-10T17:09:39.303Z,8.80
2019-04-10T17:12:07.920Z,8.53
2019-04-10T17:14:37.748Z,8.31
2019-04-10T17:17:06.927Z,8.25
2019-04-10T17:19:46.363Z,8.20
2019-04-10T17:22:06.832Z,8.10
2019-04-10T17:24:35.559Z,8.06
2019-04-10T17:27:05.031Z,8.02
2019-04-10T17:29:34.891Z,7.91
2019-04-10T17:32:04.725Z,7.89
2019-04-10T17:34:34.637Z,7.96
2019-04-10T17:37:03.429Z,7.95
2019-04-10T17:39:33.382Z,7.81
2019-04-10T17:42:02.184Z,7.67
2019-04-10T17:44:31.832Z,7.61
2019-04-10T17:47:01.705Z,7.60
2019-04-10T17:49:31.695Z,7.54
2019-04-10T17:52:02.453Z,7.50
2019-04-10T17:54:31.465Z,7.49
2019-04-10T17:57:00.547Z,7.37
2019-04-10T17:59:30.213Z,7.19
2019-04-10T18:02:01.187Z,7.10
2019-04-10T18:04:30.041Z,7.07
2019-04-10T18:06:59.626Z,6.95
2019-04-10T18:09:28.702Z,6.86
2019-04-10T18:12:00.390Z,6.85
2019-04-10T18:14:27.666Z,6.93
2019-04-10T18:16:56.274Z,6.94
2019-04-10T18:19:25.410Z,7.01
2019-04-10T18:21:54.251Z,6.84
2019-04-10T18:24:24.163Z,6.82
2019-04-10T18:26:54.200Z,6.88
2019-04-10T18:29:23.327Z,6.82
2019-04-10T18:31:52.198Z,6.81
2019-04-10T18:34:21.519Z,6.82
2019-04-10T18:36:51.100Z,6.76
2019-04-10T18:39:20.223Z,6.75
2019-04-10T18:41:48.877Z,6.68
2019-04-10T18:44:17.481Z,6.73
2019-04-10T18:46:49.072Z,6.73
2019-04-10T18:49:17.685Z,6.77
2019-04-10T18:51:46.304Z,6.79
2019-04-10T18:54:16.663Z,6.79
2019-04-10T18:56:49.409Z,6.82
2019-04-10T18:59:29.061Z,6.79
2019-04-10T19:01:59.311Z,6.83
2019-04-10T19:04:30.655Z,6.88
2019-04-10T19:07:00.873Z,6.88
2019-04-10T19:09:30.999Z,6.86
2019-04-10T19:12:00.338Z,6.82
2019-04-10T19:14:30.239Z,6.83
2019-04-10T19:17:00.325Z,6.73
2019-04-10T19:19:30.619Z,6.68
2019-04-10T19:22:00.053Z,6.77
2019-04-10T19:24:30.207Z,6.65
2019-04-10T19:26:59.933Z,6.76
2019-04-10T19:29:29.653Z,6.74
2019-04-10T19:32:01.493Z,6.60
2019-04-10T19:34:31.669Z,6.47
2019-04-10T19:37:00.608Z,6.47
2019-04-10T19:39:30.011Z,6.43
2019-04-10T19:41:59.064Z,6.28
2019-04-10T19:44:28.826Z,6.28
2019-04-10T19:46:57.864Z,6.20
2019-04-10T19:49:26.543Z,6.15
2019-04-10T19:51:56.022Z,6.18
2019-04-10T19:54:24.708Z,6.08
2019-04-10T19:56:53.331Z,6.04
2019-04-10T19:59:22.912Z,6.03
2019-04-10T20:01:52.652Z,6.03
2019-04-10T20:04:21.327Z,6.04
2019-04-10T20:06:49.942Z,6.01
2019-04-10T20:09:20.075Z,5.96
2019-04-10T20:11:53.055Z,6.05
2019-04-10T20:14:20.032Z,6.05
2019-04-10T20:16:49.411Z,5.88
2019-04-10T20:19:18.171Z,5.79
2019-04-10T20:21:50.357Z,5.79
2019-04-10T20:24:19.056Z,5.74
2019-04-10T20:26:47.665Z,5.74
2019-04-10T20:29:17.168Z,5.67
2019-04-10T20:31:51.831Z,5.46
2019-04-10T20:34:21.245Z,5.43
2019-04-10T20:36:50.052Z,5.43
2019-04-10T20:39:18.723Z,5.47
2019-04-10T20:41:52.330Z,5.35
2019-04-10T20:44:18.747Z,5.27
2019-04-10T20:46:48.688Z,5.36
2019-04-10T20:49:18.427Z,5.20
2019-04-10T20:51:47.701Z,5.09
2019-04-10T20:54:17.481Z,5.09
2019-04-10T20:56:49.083Z,5.13
2019-04-10T20:59:17.676Z,5.05
2019-04-10T21:01:47.005Z,5.05
2019-04-10T21:04:15.624Z,5.05
2019-04-10T21:06:46.498Z,4.93
2019-04-10T21:09:19.045Z,4.87
2019-04-10T21:11:59.811Z,4.76
2019-04-10T21:14:19.158Z,4.77
2019-04-10T21:16:47.927Z,4.56
2019-04-10T21:19:18.506Z,4.41
2019-04-10T21:21:47.237Z,4.24
2019-04-10T21:24:17.392Z,4.14
2019-04-10T21:26:46.459Z,3.92
2019-04-10T21:29:19.250Z,3.83
2019-04-10T21:31:50.409Z,3.68
2019-04-10T21:34:21.820Z,3.73
2019-04-10T21:36:51.206Z,3.64
2019-04-10T21:39:21.108Z,3.52
2019-04-10T21:41:49.896Z,3.54
2019-04-10T21:44:18.510Z,3.61
2019-04-10T21:46:47.218Z,3.44
2019-04-10T21:49:17.373Z,3.33
2019-04-10T21:51:47.520Z,3.23
2019-04-10T21:54:19.213Z,3.22
2019-04-10T21:56:47.825Z,3.15
2019-04-10T21:59:16.759Z,3.13
2019-04-10T22:01:46.562Z,3.18
2019-04-10T22:04:15.255Z,3.07
2019-04-10T22:06:57.533Z,3.06
2019-04-10T22:09:50.797Z,3.06
2019-04-10T22:12:47.088Z,3.04
2019-04-10T22:15:22.577Z,3.07
2019-04-10T22:17:52.333Z,3.02
2019-04-10T22:20:20.922Z,3.03
2019-04-10T22:22:49.506Z,3.17
2019-04-10T22:25:18.059Z,3.17
2019-04-10T22:27:47.833Z,3.04
2019-04-10T22:30:17.312Z,3.00
2019-04-10T22:32:47.394Z,3.04
2019-04-10T22:35:17.561Z,3.07
2019-04-10T22:37:49.094Z,3.17
2019-04-10T22:40:17.821Z,3.27
2019-04-10T22:42:48.196Z,3.21
2019-04-10T22:45:29.226Z,3.13
2019-04-10T22:47:58.870Z,3.11
2019-04-10T22:50:28.921Z,3.09
2019-04-10T22:52:57.684Z,2.97
2019-04-10T22:55:26.422Z,2.80
2019-04-10T22:57:55.031Z,2.79
2019-04-10T23:00:25.570Z,2.73
2019-04-10T23:02:55.043Z,2.67
2019-04-10T23:05:24.603Z,2.57
2019-04-10T23:07:53.469Z,2.51
2019-04-10T23:10:22.072Z,2.37
2019-04-10T23:12:59.167Z,2.41
2019-04-10T23:15:21.055Z,2.37
2019-04-10T23:17:50.690Z,2.22
2019-04-10T23:20:19.580Z,2.13
2019-04-10T23:22:48.790Z,1.98
2019-04-10T23:25:18.333Z,2.03
2019-04-10T23:27:47.944Z,1.96
2019-04-10T23:30:20.067Z,2.02
2019-04-10T23:32:49.842Z,2.03
2019-04-10T23:35:19.106Z,2.02
2019-04-10T23:37:47.830Z,2.00
2019-04-10T23:40:16.874Z,1.96
2019-04-10T23:42:46.365Z,1.87
2019-04-10T23:45:15.597Z,1.84
2019-04-10T23:47:46.562Z,1.76
2019-04-10T23:50:18.610Z,1.78
2019-04-10T23:52:47.919Z,1.70
2019-04-10T23:55:19.774Z,1.60
2019-04-10T23:57:48.295Z,1.56
